createdAt,value
2019-05-30T00:00:03.662Z,87.51
2019-05-30T00:00:48.977Z,87.32
2019-05-30T00:01:49.199Z,87.51
2019-05-30T00:02:49.501Z,87.79
2019-05-30T00:03:50.555Z,87.7
2019-05-30T00:04:50.438Z,87.6
2019-05-30T00:05:51.601Z,88.27
2019-05-30T00:06:51.789Z,88.65
2019-05-30T00:07:52.533Z,88.27
2019-05-30T00:08:54.264Z,89.03
2019-05-30T00:09:54.255Z,88.84
2019-05-30T00:10:54.378Z,88.27
2019-05-30T00:11:54.696Z,88.46
2019-05-30T00:12:54.892Z,89.13
2019-05-30T00:13:56.661Z,90.08
2019-05-30T00:14:56.591Z,90.08
2019-05-30T00:15:58.724Z,90.84
2019-05-30T00:16:58.791Z,90.17
2019-05-30T00:18:00.849Z,90.17
2019-05-30T00:19:00.861Z,90.17
2019-05-30T00:20:00.937Z,90.17
2019-05-30T00:21:02.899Z,90.84
2019-05-30T00:22:03.850Z,89.98
2019-05-30T00:23:02.402Z,89.89
2019-05-30T00:24:04.161Z,89.89
2019-05-30T00:25:04.296Z,89.7
2019-05-30T00:26:04.647Z,89.98
2019-05-30T00:27:04.519Z,90.27
2019-05-30T00:28:05.090Z,90.17
2019-05-30T00:29:06.644Z,90.08
2019-05-30T00:30:23.042Z,90.27
2019-05-30T00:31:06.599Z,89.13
2019-05-30T00:32:07.818Z,88.65
2019-05-30T00:33:08.776Z,88.65
2019-05-30T00:34:09.479Z,88.46
2019-05-30T00:35:09.085Z,89.22
2019-05-30T00:36:09.205Z,89.22
2019-05-30T00:37:11.218Z,89.13
2019-05-30T00:38:11.342Z,88.46
2019-05-30T00:39:11.834Z,88.65
2019-05-30T00:40:11.416Z,88.56
2019-05-30T00:41:12.140Z,88.18
2019-05-30T00:42:12.368Z,87.79
2019-05-30T00:43:12.494Z,88.08
2019-05-30T00:44:12.936Z,88.27
2019-05-30T00:45:25.875Z,88.37
2019-05-30T00:46:13.990Z,88.18
2019-05-30T00:47:14.405Z,89.41
2019-05-30T00:48:14.817Z,88.75
2019-05-30T00:49:15.503Z,88.37
2019-05-30T00:50:16.492Z,88.46
2019-05-30T00:51:16.893Z,88.08
2019-05-30T00:52:17.468Z,87.7
2019-05-30T00:53:18.163Z,87.6
2019-05-30T00:54:18.575Z,87.79
2019-05-30T00:55:19.277Z,87.41
2019-05-30T00:56:19.676Z,86.36
2019-05-30T00:57:20.956Z,87.51
2019-05-30T00:58:21.664Z,87.41
2019-05-30T00:59:22.059Z,87.7
2019-05-30T01:00:22.182Z,87.41
2019-05-30T01:01:23.035Z,87.7
2019-05-30T01:02:23.772Z,87.13
2019-05-30T01:03:24.489Z,86.65
2019-05-30T01:04:24.906Z,87.13
2019-05-30T01:05:27.237Z,87.23
2019-05-30T01:06:26.043Z,86.84
2019-05-30T01:07:26.495Z,87.03
2019-05-30T01:08:26.892Z,87.03
2019-05-30T01:09:27.299Z,86.84
2019-05-30T01:10:27.696Z,87.41
2019-05-30T01:11:27.812Z,87.6
2019-05-30T01:12:28.815Z,87.41
2019-05-30T01:13:29.228Z,86.84
2019-05-30T01:14:29.624Z,86.46
2019-05-30T01:15:30.318Z,86.36
2019-05-30T01:16:31.039Z,86.55
2019-05-30T01:17:31.403Z,86.75
2019-05-30T01:18:31.532Z,86.46
2019-05-30T01:19:31.996Z,86.55
2019-05-30T01:20:32.708Z,86.46
2019-05-30T01:21:33.414Z,86.46
2019-05-30T01:22:34.075Z,86.55
2019-05-30T01:23:34.492Z,86.08
2019-05-30T01:24:34.877Z,87.51
2019-05-30T01:25:35.594Z,87.6
2019-05-30T01:26:36.290Z,87.03
2019-05-30T01:27:36.416Z,87.51
2019-05-30T01:28:36.832Z,87.51
2019-05-30T01:29:37.861Z,86.55
2019-05-30T01:30:37.846Z,86.27
2019-05-30T01:31:38.695Z,86.18
2019-05-30T01:32:39.198Z,85.51
2019-05-30T01:33:39.912Z,85.99
2019-05-30T01:34:40.026Z,85.8
2019-05-30T01:35:40.425Z,86.36
2019-05-30T01:36:40.816Z,86.36
2019-05-30T01:37:40.945Z,86.55
2019-05-30T01:38:41.355Z,86.65
2019-05-30T01:39:41.773Z,85.51
2019-05-30T01:40:41.893Z,86.22
2019-05-30T01:41:42.009Z,85.89
2019-05-30T01:42:42.259Z,84.94
2019-05-30T01:43:43.224Z,85.13
2019-05-30T01:44:43.632Z,85.32
2019-05-30T01:45:44.619Z,86.46
2019-05-30T01:46:45.088Z,86.08
2019-05-30T01:47:45.503Z,87.23
2019-05-30T01:48:46.044Z,86.36
2019-05-30T01:49:46.462Z,85.89
2019-05-30T01:50:47.121Z,85.7
2019-05-30T01:51:48.491Z,85.6
2019-05-30T01:52:48.638Z,86.65
2019-05-30T01:53:49.462Z,86.04
2019-05-30T01:54:50.100Z,85.85
2019-05-30T01:55:53.965Z,86.46
2019-05-30T01:56:51.398Z,85.99
2019-05-30T01:57:52.178Z,86.36
2019-05-30T01:58:52.979Z,85.89
2019-05-30T01:59:53.380Z,85.6
2019-05-30T02:00:54.364Z,85.37
2019-05-30T02:01:54.506Z,85.22
2019-05-30T02:02:54.688Z,84.75
2019-05-30T02:03:55.260Z,85.03
2019-05-30T02:04:55.206Z,85.94
2019-05-30T02:05:55.454Z,85.8
2019-05-30T02:06:56.485Z,85.8
2019-05-30T02:07:57.286Z,85.85
2019-05-30T02:08:59.009Z,85.66
2019-05-30T02:09:59.136Z,85.47
2019-05-30T02:10:59.213Z,84.7
2019-05-30T02:11:59.363Z,84.61
2019-05-30T02:13:01.192Z,84.8
2019-05-30T02:14:01.532Z,84.8
2019-05-30T02:15:01.541Z,84.7
2019-05-30T02:16:02.469Z,85.18
2019-05-30T02:17:03.644Z,85.28
2019-05-30T02:18:03.571Z,86.32
2019-05-30T02:19:05.796Z,86.51
2019-05-30T02:20:05.779Z,86.51
2019-05-30T02:21:05.842Z,86.32
2019-05-30T02:22:07.931Z,85.66
2019-05-30T02:23:10.949Z,85.56
2019-05-30T02:24:07.973Z,85.75
2019-05-30T02:25:10.349Z,85.47
2019-05-30T02:26:10.499Z,85.47
2019-05-30T02:27:10.341Z,85.18
2019-05-30T02:28:10.347Z,85.37
2019-05-30T02:29:10.424Z,85.85
2019-05-30T02:30:14.978Z,86.32
2019-05-30T02:31:12.791Z,86.13
2019-05-30T02:32:12.313Z,85.75
2019-05-30T02:33:14.650Z,85.66
2019-05-30T02:34:15.303Z,86.04
2019-05-30T02:35:17.693Z,85.28
2019-05-30T02:36:17.811Z,84.8
2019-05-30T02:37:17.964Z,84.23
2019-05-30T02:38:17.219Z,84.89
2019-05-30T02:39:17.735Z,84.8
2019-05-30T02:40:20.385Z,84.61
2019-05-30T02:41:17.935Z,84.7
2019-05-30T02:42:17.916Z,84.61
2019-05-30T02:43:18.929Z,83.65
2019-05-30T02:44:19.630Z,83.75
2019-05-30T02:45:19.754Z,83.65
2019-05-30T02:46:20.491Z,83.75
2019-05-30T02:47:22.588Z,83.85
2019-05-30T02:48:22.125Z,84.23
2019-05-30T02:49:23.160Z,84.7
2019-05-30T02:50:23.738Z,84.8
2019-05-30T02:51:23.901Z,84.61
2019-05-30T02:52:24.310Z,83.85
2019-05-30T02:53:25.104Z,83.85
2019-05-30T02:54:25.809Z,83.47
2019-05-30T02:55:26.231Z,83.37
2019-05-30T02:56:26.640Z,83.18
2019-05-30T02:57:27.337Z,83.18
2019-05-30T02:58:27.743Z,83.28
2019-05-30T02:59:28.794Z,83.65
2019-05-30T03:00:29.208Z,83.37
2019-05-30T03:01:29.648Z,82.8
2019-05-30T03:02:30.102Z,82.8
2019-05-30T03:03:29.940Z,82.99
2019-05-30T03:04:30.970Z,82.99
2019-05-30T03:05:31.960Z,82.9
2019-05-30T03:06:32.686Z,83.18
2019-05-30T03:07:33.711Z,83.28
2019-05-30T03:08:34.435Z,83.75
2019-05-30T03:09:35.142Z,83.85
2019-05-30T03:10:35.820Z,83.56
2019-05-30T03:11:36.658Z,83.85
2019-05-30T03:12:37.393Z,83.56
2019-05-30T03:13:37.920Z,83.09
2019-05-30T03:14:38.052Z,82.61
2019-05-30T03:15:38.822Z,82.32
2019-05-30T03:16:39.264Z,82.61
2019-05-30T03:17:39.975Z,82.32
2019-05-30T03:18:40.694Z,82.9
2019-05-30T03:19:41.689Z,82.99
2019-05-30T03:20:42.405Z,82.9
2019-05-30T03:21:43.112Z,82.99
2019-05-30T03:22:43.849Z,83.09
2019-05-30T03:23:44.372Z,82.32
2019-05-30T03:24:45.152Z,82.61
2019-05-30T03:25:46.418Z,83.18
2019-05-30T03:26:47.433Z,83.18
2019-05-30T03:27:47.572Z,83.18
2019-05-30T03:28:52.543Z,82.51
2019-05-30T03:29:49.621Z,83.47
2019-05-30T03:30:50.011Z,83.47
2019-05-30T03:31:50.310Z,83.85
2019-05-30T03:33:37.232Z,84.61
2019-05-30T03:34:35.331Z,83.56
2019-05-30T03:35:46.689Z,83.85
2019-05-30T03:36:37.396Z,83.56
2019-05-30T03:37:37.735Z,82.9
2019-05-30T03:38:38.111Z,83.33
2019-05-30T03:39:38.198Z,83.28
2019-05-30T03:40:39.482Z,83.65
2019-05-30T03:41:40.476Z,83.42
2019-05-30T03:42:40.896Z,83.65
2019-05-30T03:43:41.328Z,83.23
2019-05-30T03:44:41.718Z,83.42
2019-05-30T03:45:42.739Z,82.86
2019-05-30T03:46:43.042Z,82.38
2019-05-30T03:47:43.771Z,82.28
2019-05-30T03:48:44.470Z,82.76
2019-05-30T03:49:45.254Z,82.9
2019-05-30T03:50:46.293Z,83.04
2019-05-30T03:51:47.342Z,83.09
2019-05-30T03:52:48.343Z,83.33
2019-05-30T03:53:49.379Z,83.33
2019-05-30T03:54:49.222Z,82.95
2019-05-30T03:55:50.223Z,83.04
2019-05-30T03:56:50.978Z,82.38
2019-05-30T03:57:52.011Z,82.38
2019-05-30T03:58:52.412Z,82.28
2019-05-30T03:59:53.133Z,82.57
2019-05-30T04:00:56.842Z,82.61
2019-05-30T04:01:53.942Z,82.61
2019-05-30T04:03:03.841Z,82.9
2019-05-30T04:03:55.430Z,82.8
2019-05-30T04:04:56.355Z,83.18
2019-05-30T04:05:57.014Z,83.14
2019-05-30T04:06:57.443Z,83.09
2019-05-30T04:07:57.628Z,83.37
2019-05-30T04:08:58.112Z,83.56
2019-05-30T04:09:58.824Z,84.52
2019-05-30T04:10:59.093Z,84.42
2019-05-30T04:11:59.853Z,84.89
2019-05-30T04:13:00.839Z,84.52
2019-05-30T04:14:01.232Z,84.8
2019-05-30T04:15:01.787Z,84.61
2019-05-30T04:16:02.104Z,83.94
2019-05-30T04:17:02.248Z,84.04
2019-05-30T04:18:03.047Z,84.23
2019-05-30T04:19:03.873Z,85.08
2019-05-30T04:20:04.041Z,84.7
2019-05-30T04:21:05.099Z,85.08
2019-05-30T04:22:07.298Z,85.47
2019-05-30T04:23:08.381Z,86.04
2019-05-30T04:24:07.533Z,86.7
2019-05-30T04:25:08.561Z,85.94
2019-05-30T04:26:09.667Z,85.28
2019-05-30T04:27:09.873Z,85.08
2019-05-30T04:28:09.852Z,84.8
2019-05-30T04:29:12.199Z,84.61
2019-05-30T04:30:14.365Z,84.42
2019-05-30T04:31:14.481Z,84.7
2019-05-30T04:32:14.494Z,84.13
2019-05-30T04:33:33.633Z,83.75
2019-05-30T04:34:16.828Z,84
2019-05-30T04:35:16.793Z,83.42
2019-05-30T04:36:16.958Z,83.33
2019-05-30T04:37:17.112Z,82.86
2019-05-30T04:38:19.444Z,82.42
2019-05-30T04:39:19.151Z,82.09
2019-05-30T04:40:20.401Z,82.42
2019-05-30T04:41:20.941Z,82.61
2019-05-30T04:42:20.913Z,82.04
2019-05-30T04:43:20.885Z,81.37
2019-05-30T04:44:21.815Z,81.81
2019-05-30T04:45:21.626Z,80.86
2019-05-30T04:46:24.409Z,81.24
2019-05-30T04:47:21.385Z,81.52
2019-05-30T04:48:24.286Z,81.24
2019-05-30T04:49:24.385Z,81.33
2019-05-30T04:50:25.716Z,81.43
2019-05-30T04:51:26.868Z,81.47
2019-05-30T04:52:29.814Z,80.9
2019-05-30T04:53:26.333Z,80.8
2019-05-30T04:54:27.000Z,81.37
2019-05-30T04:55:28.175Z,81.37
2019-05-30T04:56:27.309Z,81.09
2019-05-30T04:57:32.365Z,80.99
2019-05-30T04:58:29.643Z,81.09
2019-05-30T04:59:28.874Z,80.71
2019-05-30T05:00:29.874Z,81.18
2019-05-30T05:01:30.894Z,81.28
2019-05-30T05:02:31.170Z,81.76
2019-05-30T05:03:50.684Z,82.04
2019-05-30T05:04:32.676Z,82.7
2019-05-30T05:05:32.998Z,83.47
2019-05-30T05:06:33.263Z,82.99
2019-05-30T05:07:33.716Z,83.09
2019-05-30T05:08:34.022Z,83.09
2019-05-30T05:09:34.066Z,83.56
2019-05-30T05:10:34.475Z,84.42
2019-05-30T05:11:35.190Z,84.52
2019-05-30T05:12:35.325Z,84.52
2019-05-30T05:13:36.044Z,85.18
2019-05-30T05:14:37.035Z,85.75
2019-05-30T05:15:37.497Z,86.9
2019-05-30T05:16:41.822Z,86.42
2019-05-30T05:17:38.820Z,87.37
2019-05-30T05:18:39.813Z,86.99
2019-05-30T05:19:40.555Z,87.08
2019-05-30T05:20:42.016Z,88.04
2019-05-30T05:21:42.108Z,89.75
2019-05-30T05:22:42.530Z,89.08
2019-05-30T05:23:43.226Z,89.56
2019-05-30T05:24:43.622Z,89.56
2019-05-30T05:25:57.727Z,89.08
2019-05-30T05:26:44.012Z,88.7
2019-05-30T05:27:44.424Z,89.08
2019-05-30T05:28:44.823Z,89.98
2019-05-30T05:29:45.223Z,90.65
2019-05-30T05:30:45.643Z,90.94
2019-05-30T05:31:45.766Z,90.36
2019-05-30T05:32:46.182Z,89.61
2019-05-30T05:34:01.631Z,89.61
2019-05-30T05:34:47.332Z,88.84
2019-05-30T05:35:48.583Z,88.37
2019-05-30T05:36:48.997Z,89.98
2019-05-30T05:37:49.397Z,90.17
2019-05-30T05:38:49.525Z,89.79
2019-05-30T05:39:49.645Z,90.84
2019-05-30T05:40:50.049Z,92.89
2019-05-30T05:41:50.179Z,94.7
2019-05-30T05:42:50.298Z,97.65
2019-05-30T05:43:50.715Z,98.22
2019-05-30T05:44:51.134Z,98.99
2019-05-30T05:45:51.634Z,99.75
2019-05-30T05:46:52.332Z,99.46
2019-05-30T05:47:53.044Z,99.99
2019-05-30T05:48:53.770Z,99.99
2019-05-30T05:49:53.903Z,99.99
2019-05-30T05:50:54.335Z,99.99
2019-05-30T05:51:55.342Z,99.89
2019-05-30T05:52:56.033Z,99.99
2019-05-30T05:53:56.164Z,99.99
2019-05-30T05:54:56.615Z,99.99
2019-05-30T05:55:57.271Z,99.99
2019-05-30T05:56:57.947Z,99.99
2019-05-30T05:57:58.458Z,99.99
2019-05-30T05:58:59.448Z,99.99
2019-05-30T05:59:59.883Z,99.99
2019-05-30T06:01:01.245Z,99.99
2019-05-30T06:02:01.947Z,99.99
2019-05-30T06:03:02.700Z,99.99
2019-05-30T06:04:19.093Z,99.99
2019-05-30T06:05:04.304Z,99.99
2019-05-30T06:06:04.674Z,99.99
2019-05-30T06:07:05.072Z,99.99
2019-05-30T06:08:05.972Z,99.99
2019-05-30T06:09:07.308Z,99.99
2019-05-30T06:10:08.227Z,99.99
2019-05-30T06:11:08.155Z,99.99
2019-05-30T06:12:08.850Z,99.99
2019-05-30T06:13:09.566Z,99.99
2019-05-30T06:14:09.795Z,99.99
2019-05-30T06:15:11.149Z,99.99
2019-05-30T06:16:11.684Z,99.99
2019-05-30T06:17:12.009Z,99.99
2019-05-30T06:18:12.260Z,99.99
2019-05-30T06:19:12.397Z,99.99
2019-05-30T06:20:12.269Z,99.99
2019-05-30T06:21:13.233Z,99.99
2019-05-30T06:22:14.081Z,99.99
2019-05-30T06:23:15.248Z,99.99
2019-05-30T06:24:15.665Z,99.99
2019-05-30T06:25:18.883Z,99.99
2019-05-30T06:26:17.668Z,99.99
2019-05-30T06:27:17.819Z,99.99
2019-05-30T06:28:18.016Z,99.99
2019-05-30T06:29:18.536Z,99.99
2019-05-30T06:30:20.314Z,99.99
2019-05-30T06:31:20.338Z,99.99
2019-05-30T06:32:20.861Z,99.99
2019-05-30T06:33:20.960Z,99.99
2019-05-30T06:34:39.468Z,99.99
2019-05-30T06:35:24.985Z,99.99
2019-05-30T06:36:25.061Z,99.99
2019-05-30T06:37:25.186Z,99.99
2019-05-30T06:38:27.279Z,99.99
2019-05-30T06:39:27.561Z,99.99
2019-05-30T06:40:30.323Z,99.99
2019-05-30T06:41:27.711Z,99.99
2019-05-30T06:42:28.229Z,99.99
2019-05-30T06:43:30.270Z,99.99
2019-05-30T06:44:30.207Z,99.99
2019-05-30T06:45:30.470Z,99.99
2019-05-30T06:46:30.548Z,99.99
2019-05-30T06:47:30.483Z,99.99
2019-05-30T06:48:32.408Z,99.99
2019-05-30T06:49:32.377Z,99.99
2019-05-30T06:50:32.414Z,99.99
2019-05-30T06:51:32.555Z,99.99
2019-05-30T06:52:32.686Z,99.99
2019-05-30T06:53:34.948Z,99.99
2019-05-30T06:54:34.873Z,99.99
2019-05-30T06:55:35.289Z,99.99
2019-05-30T06:56:35.525Z,99.99
2019-05-30T06:57:36.663Z,99.99
2019-05-30T06:58:53.090Z,99.99
2019-05-30T06:59:37.392Z,99.99
2019-05-30T07:00:38.229Z,99.99
2019-05-30T07:01:37.925Z,99.99
2019-05-30T07:02:39.150Z,99.99
2019-05-30T07:03:39.365Z,99.99
2019-05-30T07:04:57.232Z,99.99
2019-05-30T07:05:41.980Z,99.99
2019-05-30T07:06:41.802Z,99.99
2019-05-30T07:07:42.742Z,99.99
2019-05-30T07:08:42.318Z,99.99
2019-05-30T07:09:42.739Z,99.99
2019-05-30T07:10:42.863Z,99.99
2019-05-30T07:11:43.003Z,99.99
2019-05-30T07:12:43.420Z,99.99
2019-05-30T07:13:44.409Z,99.99
2019-05-30T07:14:44.828Z,99.99
2019-05-30T07:15:44.954Z,99.99
2019-05-30T07:16:45.638Z,99.99
2019-05-30T07:17:46.062Z,99.99
2019-05-30T07:18:47.072Z,99.99
2019-05-30T07:19:48.061Z,99.99
2019-05-30T07:20:48.474Z,99.99
2019-05-30T07:21:48.879Z,99.99
2019-05-30T07:22:49.305Z,99.99
2019-05-30T07:23:49.485Z,99.99
2019-05-30T07:24:49.624Z,99.99
2019-05-30T07:25:49.765Z,99.99
2019-05-30T07:26:50.449Z,99.99
2019-05-30T07:27:50.570Z,99.99
2019-05-30T07:28:51.336Z,99.99
2019-05-30T07:29:51.922Z,99.99
2019-05-30T07:30:52.355Z,99.99
2019-05-30T07:31:53.074Z,99.99
2019-05-30T07:32:53.050Z,99.99
2019-05-30T07:33:53.473Z,99.99
2019-05-30T07:35:08.630Z,99.99
2019-05-30T07:35:54.753Z,99.99
2019-05-30T07:36:55.537Z,99.99
2019-05-30T07:37:55.985Z,99.99
2019-05-30T07:38:56.190Z,99.99
2019-05-30T07:39:56.594Z,99.99
2019-05-30T07:40:57.016Z,99.99
2019-05-30T07:42:11.252Z,99.99
2019-05-30T07:42:57.722Z,99.99
2019-05-30T07:43:58.143Z,99.99
2019-05-30T07:44:58.548Z,99.99
2019-05-30T07:46:03.818Z,99.99
2019-05-30T07:46:59.355Z,99.99
2019-05-30T07:47:59.776Z,99.99
2019-05-30T07:49:00.642Z,99.99
2019-05-30T07:50:01.613Z,99.99
2019-05-30T07:51:01.713Z,99.99
2019-05-30T07:52:02.311Z,99.99
2019-05-30T07:53:02.845Z,99.99
2019-05-30T07:54:03.380Z,99.39
2019-05-30T07:55:04.379Z,98.29
2019-05-30T07:56:05.111Z,94.83
2019-05-30T07:57:05.951Z,86.81
2019-05-30T07:58:06.674Z,85.99
2019-05-30T07:59:07.141Z,88.44
2019-05-30T08:00:07.371Z,81.23
2019-05-30T08:01:07.580Z,76.75
2019-05-30T08:02:08.419Z,76.21
2019-05-30T08:03:08.648Z,72.45
2019-05-30T08:04:08.884Z,72.2
2019-05-30T08:05:22.696Z,69.99
2019-05-30T08:06:10.389Z,70.76
2019-05-30T08:07:10.709Z,68.93
2019-05-30T08:08:11.507Z,70.01
2019-05-30T08:09:11.996Z,70.46
2019-05-30T08:10:12.437Z,73.15
2019-05-30T08:11:15.620Z,76.07
2019-05-30T08:12:13.678Z,75.37
2019-05-30T08:13:13.901Z,73.35
2019-05-30T08:14:14.326Z,69.6
2019-05-30T08:15:15.062Z,70.56
2019-05-30T08:16:15.502Z,71.84
2019-05-30T08:17:15.546Z,72.52
2019-05-30T08:18:16.432Z,72.09
2019-05-30T08:19:16.479Z,68.92
2019-05-30T08:20:16.969Z,69.31
2019-05-30T08:21:17.709Z,66.91
2019-05-30T08:22:17.913Z,69.98
2019-05-30T08:23:18.788Z,70.56
2019-05-30T08:24:18.713Z,72.92
2019-05-30T08:25:19.053Z,70.17
2019-05-30T08:26:23.784Z,68.63
2019-05-30T08:27:20.810Z,66.71
2019-05-30T08:28:20.987Z,67.22
2019-05-30T08:29:21.418Z,64.66
2019-05-30T08:30:22.548Z,63.18
2019-05-30T08:31:23.273Z,61.71
2019-05-30T08:32:23.755Z,58.67
2019-05-30T08:33:27.229Z,60.27
2019-05-30T08:34:24.614Z,59.79
2019-05-30T08:35:38.885Z,61.14
2019-05-30T08:36:25.981Z,62.74
2019-05-30T08:37:26.524Z,65.56
2019-05-30T08:38:27.030Z,61.32
2019-05-30T08:39:27.267Z,62.16
2019-05-30T08:40:29.033Z,62.03
2019-05-30T08:41:29.092Z,61.46
2019-05-30T08:42:29.585Z,62.61
2019-05-30T08:43:29.500Z,61.78
2019-05-30T08:44:31.550Z,62.29
2019-05-30T08:45:31.593Z,63.28
2019-05-30T08:46:32.303Z,62.41
2019-05-30T08:47:33.914Z,62.54
2019-05-30T08:48:33.311Z,61.8
2019-05-30T08:49:34.013Z,61.87
2019-05-30T08:50:36.429Z,58.72
2019-05-30T08:51:36.235Z,58.56
2019-05-30T08:52:36.492Z,58.11
2019-05-30T08:53:38.412Z,58.3
2019-05-30T08:54:38.516Z,58.2
2019-05-30T08:55:40.591Z,54.21
2019-05-30T08:56:40.648Z,55.78
2019-05-30T08:57:41.063Z,52.98
2019-05-30T08:58:42.005Z,53.85
2019-05-30T08:59:44.755Z,51.25
2019-05-30T09:00:42.349Z,52.62
2019-05-30T09:01:43.874Z,52.81
2019-05-30T09:02:42.886Z,49.63
2019-05-30T09:03:44.501Z,48.03
2019-05-30T09:04:46.003Z,49.37
2019-05-30T09:06:04.416Z,50.62
2019-05-30T09:06:46.102Z,52.78
2019-05-30T09:07:46.310Z,54.78
2019-05-30T09:08:47.629Z,55.23
2019-05-30T09:09:47.518Z,60.59
2019-05-30T09:10:48.204Z,63.67
2019-05-30T09:11:47.621Z,64.22
2019-05-30T09:12:51.657Z,63.76
2019-05-30T09:13:48.145Z,63.28
2019-05-30T09:14:50.791Z,65.17
2019-05-30T09:15:50.513Z,67.48
2019-05-30T09:16:52.975Z,69.79
2019-05-30T09:17:52.347Z,70.23
2019-05-30T09:18:52.914Z,71.73
2019-05-30T09:19:52.660Z,70.01
2019-05-30T09:20:52.665Z,69.49
2019-05-30T09:21:52.757Z,70.17
2019-05-30T09:22:53.482Z,71.76
2019-05-30T09:23:57.617Z,74.83
2019-05-30T09:24:54.118Z,73.26
2019-05-30T09:25:54.862Z,72.49
2019-05-30T09:26:56.047Z,74.22
2019-05-30T09:27:56.555Z,79.16
2019-05-30T09:28:56.985Z,82.04
2019-05-30T09:29:57.663Z,80.76
2019-05-30T09:30:57.796Z,83.86
2019-05-30T09:31:57.927Z,86.21
2019-05-30T09:32:58.063Z,89.18
2019-05-30T09:33:58.745Z,92.54
2019-05-30T09:34:59.019Z,94.02
2019-05-30T09:36:12.452Z,93.07
2019-05-30T09:37:00.602Z,92.68
2019-05-30T09:38:00.708Z,95.36
2019-05-30T09:39:01.179Z,95.41
2019-05-30T09:40:01.628Z,93.98
2019-05-30T09:41:02.323Z,97.23
2019-05-30T09:42:03.042Z,99.99
2019-05-30T09:43:04.032Z,98.76
2019-05-30T09:44:04.175Z,99.48
2019-05-30T09:45:04.340Z,99.99
2019-05-30T09:46:04.742Z,99.99
2019-05-30T09:47:05.009Z,99.99
2019-05-30T09:48:05.248Z,99.99
2019-05-30T09:49:05.645Z,99.99
2019-05-30T09:50:09.533Z,99.99
2019-05-30T09:51:06.250Z,99.99
2019-05-30T09:52:06.959Z,99.99
2019-05-30T09:53:07.702Z,99.99
2019-05-30T09:54:08.152Z,99.99
2019-05-30T09:55:08.363Z,99.99
2019-05-30T09:56:08.773Z,99.99
2019-05-30T09:57:09.477Z,99.99
2019-05-30T09:58:09.552Z,99.99
2019-05-30T09:59:09.676Z,99.99
2019-05-30T10:00:10.964Z,99.99
2019-05-30T10:01:11.697Z,99.99
2019-05-30T10:02:11.824Z,99.99
2019-05-30T10:03:12.712Z,99.99
2019-05-30T10:04:13.136Z,99.99
2019-05-30T10:05:13.925Z,99.99
2019-05-30T10:06:28.352Z,99.99
2019-05-30T10:07:15.419Z,99.99
2019-05-30T10:08:16.358Z,99.99
2019-05-30T10:09:16.790Z,99.99
2019-05-30T10:10:16.899Z,99.99
2019-05-30T10:11:21.559Z,99.99
2019-05-30T10:12:17.984Z,99.99
2019-05-30T10:13:18.105Z,99.99
2019-05-30T10:14:18.534Z,99.99
2019-05-30T10:15:19.379Z,99.99
2019-05-30T10:16:19.857Z,99.99
2019-05-30T10:17:20.828Z,99.99
2019-05-30T10:18:21.396Z,99.99
2019-05-30T10:19:22.401Z,99.99
2019-05-30T10:20:22.814Z,99.99
2019-05-30T10:21:23.235Z,99.99
2019-05-30T10:22:23.633Z,99.99
2019-05-30T10:23:24.053Z,99.99
2019-05-30T10:24:24.455Z,99.99
2019-05-30T10:25:25.277Z,99.99
2019-05-30T10:26:25.875Z,99.99
2019-05-30T10:27:26.566Z,99.99
2019-05-30T10:28:27.587Z,99.99
2019-05-30T10:29:27.634Z,99.99
2019-05-30T10:30:28.661Z,99.99
2019-05-30T10:31:28.801Z,99.99
2019-05-30T10:32:29.527Z,99.99
2019-05-30T10:33:30.573Z,99.99
2019-05-30T10:34:31.314Z,99.99
2019-05-30T10:35:35.191Z,99.99
2019-05-30T10:36:43.680Z,99.99
2019-05-30T10:37:33.845Z,99.99
2019-05-30T10:38:34.900Z,99.99
2019-05-30T10:39:36.088Z,99.99
2019-05-30T10:40:37.767Z,99.99
2019-05-30T10:41:36.694Z,99.99
2019-05-30T10:42:37.735Z,99.99
2019-05-30T10:43:38.761Z,99.99
2019-05-30T10:44:39.354Z,99.99
2019-05-30T10:45:39.157Z,99.99
2019-05-30T10:46:40.381Z,99.99
2019-05-30T10:47:40.814Z,99.99
2019-05-30T10:48:41.428Z,99.99
2019-05-30T10:49:41.974Z,99.99
2019-05-30T10:50:42.424Z,99.99
2019-05-30T10:51:43.067Z,99.99
2019-05-30T10:52:43.675Z,99.99
2019-05-30T10:53:45.436Z,99.99
2019-05-30T10:54:46.424Z,99.99
2019-05-30T10:55:46.860Z,99.99
2019-05-30T10:56:46.994Z,99.99
2019-05-30T10:57:48.576Z,99.99
2019-05-30T10:58:48.377Z,99.99
2019-05-30T10:59:50.742Z,99.99
2019-05-30T11:00:53.403Z,99.99
2019-05-30T11:01:52.988Z,99.99
2019-05-30T11:02:52.951Z,99.99
2019-05-30T11:03:54.818Z,99.99
2019-05-30T11:04:55.012Z,99.99
2019-05-30T11:05:55.025Z,99.99
2019-05-30T11:07:12.799Z,99.99
2019-05-30T11:08:06.537Z,99.99
2019-05-30T11:08:56.878Z,99.99
2019-05-30T11:09:58.292Z,99.99
2019-05-30T11:10:57.974Z,99.99
2019-05-30T11:11:58.156Z,99.99
2019-05-30T11:13:07.514Z,99.99
2019-05-30T11:13:58.559Z,99.99
2019-05-30T11:14:59.321Z,99.99
2019-05-30T11:16:01.077Z,99.99
2019-05-30T11:17:01.099Z,99.99
2019-05-30T11:18:03.222Z,99.99
2019-05-30T11:19:07.156Z,99.99
2019-05-30T11:20:03.163Z,99.99
2019-05-30T11:21:03.919Z,99.99
2019-05-30T11:22:03.697Z,99.99
2019-05-30T11:23:04.126Z,99.99
2019-05-30T11:24:04.554Z,99.99
2019-05-30T11:25:05.184Z,99.99
2019-05-30T11:26:05.616Z,99.99
2019-05-30T11:27:05.741Z,99.99
2019-05-30T11:28:06.223Z,99.99
2019-05-30T11:29:06.657Z,99.99
2019-05-30T11:30:07.394Z,99.99
2019-05-30T11:31:10.475Z,99.99
2019-05-30T11:32:09.190Z,99.99
2019-05-30T11:33:09.608Z,99.99
2019-05-30T11:34:09.767Z,99.99
2019-05-30T11:35:10.527Z,99.99
2019-05-30T11:36:11.239Z,99.99
2019-05-30T11:37:24.630Z,99.99
2019-05-30T11:38:12.755Z,99.99
2019-05-30T11:39:13.658Z,99.99
2019-05-30T11:40:14.194Z,99.99
2019-05-30T11:41:15.120Z,99.99
2019-05-30T11:42:15.644Z,99.99
2019-05-30T11:43:16.419Z,99.99
2019-05-30T11:44:17.142Z,99.99
2019-05-30T11:45:17.867Z,99.99
2019-05-30T11:46:18.455Z,99.99
2019-05-30T11:47:18.992Z,99.99
2019-05-30T11:48:19.725Z,99.99
2019-05-30T11:49:19.916Z,99.99
2019-05-30T11:50:20.079Z,99.99
2019-05-30T11:51:20.872Z,99.99
2019-05-30T11:52:21.318Z,99.99
2019-05-30T11:53:22.091Z,99.99
2019-05-30T11:54:22.514Z,99.99
2019-05-30T11:55:23.121Z,99.99
2019-05-30T11:56:23.843Z,99.99
2019-05-30T11:57:24.245Z,99.99
2019-05-30T11:58:25.650Z,99.99
2019-05-30T11:59:25.377Z,99.99
2019-05-30T12:00:26.133Z,97.56
2019-05-30T12:01:26.651Z,99.99
2019-05-30T12:02:27.377Z,99.99
2019-05-30T12:03:29.484Z,99.99
2019-05-30T12:04:29.166Z,99.99
2019-05-30T12:05:30.006Z,96.22
2019-05-30T12:06:30.445Z,91.25
2019-05-30T12:07:41.418Z,91.58
2019-05-30T12:08:31.775Z,89.09
2019-05-30T12:09:32.443Z,89.66
2019-05-30T12:10:33.444Z,92.73
2019-05-30T12:11:33.577Z,92.63
2019-05-30T12:12:33.706Z,93.69
2019-05-30T12:13:34.628Z,81.33
2019-05-30T12:14:34.787Z,82.48
2019-05-30T12:15:35.499Z,81.62
2019-05-30T12:16:36.084Z,85.25
2019-05-30T12:17:36.740Z,85.83
2019-05-30T12:18:37.466Z,86.12
2019-05-30T12:19:38.143Z,83.53
2019-05-30T12:20:39.212Z,82.09
2019-05-30T12:21:39.511Z,81.95
2019-05-30T12:22:40.407Z,79.64
2019-05-30T12:23:40.981Z,83.29
2019-05-30T12:24:41.874Z,81.46
2019-05-30T12:25:42.848Z,80.41
2019-05-30T12:26:42.860Z,80.41
2019-05-30T12:27:42.707Z,81.18
2019-05-30T12:28:42.853Z,78.88
2019-05-30T12:29:43.557Z,76.57
2019-05-30T12:31:04.482Z,77.29
2019-05-30T12:31:44.335Z,79.01
2019-05-30T12:32:45.431Z,76.62
2019-05-30T12:33:46.510Z,75.46
2019-05-30T12:34:47.284Z,77.19
2019-05-30T12:35:47.989Z,79.24
2019-05-30T12:36:48.540Z,75.89
2019-05-30T12:38:04.239Z,82.6
2019-05-30T12:38:48.903Z,82.21
2019-05-30T12:39:49.565Z,84.08
2019-05-30T12:40:50.121Z,86
2019-05-30T12:41:50.575Z,85.52
2019-05-30T12:42:54.297Z,84.47
2019-05-30T12:43:52.962Z,74.68
2019-05-30T12:44:52.953Z,76.79
2019-05-30T12:45:53.140Z,72.28
2019-05-30T12:46:53.568Z,76.59
2019-05-30T12:47:55.083Z,75.45
2019-05-30T12:48:55.248Z,73.08
2019-05-30T12:49:57.147Z,69.62
2019-05-30T12:50:57.191Z,65.88
2019-05-30T12:51:58.353Z,68.57
2019-05-30T12:53:00.366Z,71.87
2019-05-30T12:54:00.480Z,73.69
2019-05-30T12:55:00.843Z,70.72
2019-05-30T12:56:02.637Z,66.91
2019-05-30T12:57:02.793Z,70.27
2019-05-30T12:58:02.974Z,66.42
2019-05-30T12:59:03.850Z,65.75
2019-05-30T13:00:09.377Z,62.8
2019-05-30T13:01:04.854Z,61.84
2019-05-30T13:02:07.254Z,60.3